This is the latest recevied weather packets stored in our database for station/object OK1TBM-13. If no packets are shown the sender has not sent any weather packets the latest 10 day(s).
| Time | Temp. | Humidity | Pressure | Rain* | Wind** | Luminosity | Snow |
|---|---|---|---|---|---|---|---|
| 1788118519 | 17.78° C | 83% | 1013.9 hPa | 0 mm | - | 0 W/m² | - |
| 1788117600 | 18.33° C | 81% | 1013.9 hPa | 0 mm | - | 0 W/m² | - |
| 1788117306 | 18.89° C | 81% | 1013.9 hPa | 0 mm | - | 0 W/m² | - |
| 1788116701 | 18.89° C | 80% | 1013.9 hPa | 0 mm | - | 0 W/m² | - |
| 1788116402 | 18.89° C | 81% | 1013.9 hPa | 0 mm | - | 0 W/m² | - |
| 1788116101 | 19.44° C | 80% | 1013.9 hPa | 0 mm | - | 0 W/m² | - |
| 1788115801 | 19.44° C | 80% | 1013.9 hPa | 0 mm | - | 0 W/m² | - |
| 1788115200 | 19.44° C | 77% | 1013.6 hPa | 0 mm | - | 0 W/m² | - |
| 1788114601 | 20° C | 76% | 1013.6 hPa | 0 mm | - | 0 W/m² | - |
| 1788113701 | 21.11° C | 71% | 1013.2 hPa | 0 mm | - | 0 W/m² | - |
| 1788113407 | 21.67° C | 71% | 1013.2 hPa | 0 mm | - | 0 W/m² | - |
| 1788112501 | 22.22° C | 66% | 1013.2 hPa | 0 mm | - | 2 W/m² | - |
| 1788112207 | 22.78° C | 64% | 1013.2 hPa | 0 mm | - | 2 W/m² | - |
| 1788111900 | 23.33° C | 62% | 1013.2 hPa | 0 mm | - | 4 W/m² | - |
| 1788111604 | 23.89° C | 62% | 1013.2 hPa | 0 mm | - | 5 W/m² | - |
| 1788111007 | 24.44° C | 59% | 1013.2 hPa | 0 mm | - | 10 W/m² | - |
| 1788110101 | 25.56° C | 51% | 1012.5 hPa | 0 mm | - | 18 W/m² | - |
| 1788109807 | 26.11° C | 50% | 1012.5 hPa | 0 mm | - | 22 W/m² | - |
| 1788109502 | 26.67° C | 48% | 1012.5 hPa | 0 mm | - | 26 W/m² | - |
| 1788108902 | 27.22° C | 46% | 1013.2 hPa | 0 mm | - | 41 W/m² | - |
| 1788108301 | 28.33° C | 45% | 1012.5 hPa | 0 mm | - | 60 W/m² | - |
| 1788108001 | 28.33° C | 44% | 1013.2 hPa | 0 mm | - | 48 W/m² | - |
| 1788107701 | 28.33° C | 44% | 1013.2 hPa | 0 mm | - | 86 W/m² | - |
| 1788107101 | 28.33° C | 43% | 1012.5 hPa | 0 mm | - | 104 W/m² | - |
| 1788106801 | 28.33° C | 42% | 1012.5 hPa | 0 mm | - | 114 W/m² | - |
* Rain latest hour (hover to see other rain measurements)
** Current wind speed in m/s (hover to see current wind gust speed)